Terminal Aerodrome Forecast
Issued by NWS

Home | Current Version | Previous Version | Text Only | Print | Product List | Glossary On
Versions: 1 2 3 4 5 6 7 8 9 10 11 12 13 14 15 16 17 18 19 20 21 22
000
FTUS43 KJKL 182300
TAFSME
TAF
KSME 182339Z 1900/1924 VRB03KT P6SM SCT035 BKN090
     FM190400 00000KT 4SM BR BKN035
     FM190700 00000KT 2SM BR BKN035
     FM190900 00000KT 1/2SM FG OVC007
     FM191400 27005KT P6SM BKN015
     FM191600 25004KT P6SM OVC025
     FM191700 24005KT P6SM VCTS SCT025CB BKN050=

USA.gov is the U.S. government's official web portal to all federal, state and local government web resources and services.